< < Back
Terminal Aerodrome Forecast


Current Version              Previous Versions:   1  2  3  4  5  6  7  8  9  

Terminal Aerodrome Forecast

838
FTUS42 KFFC 270452 AAA
TAFMCN
TAF AMD
KMCN 270452Z 2705/2724 VRB04KT 6SM BR FEW070 SCT250
      TEMPO 2705/2709 3SM BR
     FM270900 13003KT 4SM BR SCT015
     FM271500 15005KT P6SM SCT035
     FM271800 21005KT P6SM SCT035 PROB30 2723/2724 5SM -TSRA
      BKN035CB=



Latest METAR

392
SAUS80 KWBC 272000 RRC
MTRMCN
METAR KMCN 271953Z VRB04KT 10SM FEW060 33/18 A2999 RMK AO2 SLP152
T03330183


USA.gov is the U.S. government's official web portal to all federal, state and local government web resources and services.